Williamston, North Carolina
Current Conditions -  °F | °C
As of 12:15 PM on Saturday 20 Dec 2014 (Local Time) from KOCW Reporting Station
Scattered Clouds Scattered Clouds  
Wind Chill: 36°   Ceiling: Unl
Heat Index: 40°   Visibility: 10mi
Dew Point: 33°   Wind: 5mph
Humidity: 77%   Direction: 350°N
Pressure: 30.28"   Gusts: NA
Location:  35.85°N, 77.06°W
Report Text: KOCW 201715Z AUTO 35004KT 10SM SCT060 04/01 A3028 RMK AO2 T00420005 PWINO
Loading
Personal Weather Stations






























Interactive Weather Map New forecast layout! Learn more

10-Day Weather Forecast

Advertisements
Track Severe Weather on mobile